sensor_id;sensor_type;location;lat;lon;timestamp;P1;durP1;ratioP1;P2;durP2;ratioP2
14754;SDS011;7469;50.906;6.952;2023-04-07T00:01:31;8.30;;;6.87;;
14754;SDS011;7469;50.906;6.952;2023-04-07T00:03:59;9.53;;;6.87;;
14754;SDS011;7469;50.906;6.952;2023-04-07T00:06:28;8.60;;;6.67;;
14754;SDS011;7469;50.906;6.952;2023-04-07T00:08:56;9.90;;;6.80;;
14754;SDS011;7469;50.906;6.952;2023-04-07T00:11:23;8.80;;;6.33;;
14754;SDS011;7469;50.906;6.952;2023-04-07T00:13:53;8.83;;;6.63;;
14754;SDS011;7469;50.906;6.952;2023-04-07T00:16:21;9.87;;;6.63;;
14754;SDS011;7469;50.906;6.952;2023-04-07T00:18:49;8.80;;;7.00;;
14754;SDS011;7469;50.906;6.952;2023-04-07T00:21:17;10.40;;;6.70;;
14754;SDS011;7469;50.906;6.952;2023-04-07T00:23:45;7.93;;;6.20;;
14754;SDS011;7469;50.906;6.952;2023-04-07T00:26:13;8.87;;;6.87;;
14754;SDS011;7469;50.906;6.952;2023-04-07T00:28:41;9.53;;;6.47;;
14754;SDS011;7469;50.906;6.952;2023-04-07T00:31:11;9.30;;;6.30;;
14754;SDS011;7469;50.906;6.952;2023-04-07T00:33:39;12.77;;;7.00;;
14754;SDS011;7469;50.906;6.952;2023-04-07T00:36:07;8.90;;;6.63;;
14754;SDS011;7469;50.906;6.952;2023-04-07T00:38:35;8.23;;;6.47;;
14754;SDS011;7469;50.906;6.952;2023-04-07T00:41:03;8.63;;;6.73;;
14754;SDS011;7469;50.906;6.952;2023-04-07T00:43:31;9.23;;;6.77;;
14754;SDS011;7469;50.906;6.952;2023-04-07T00:45:59;8.53;;;6.53;;
14754;SDS011;7469;50.906;6.952;2023-04-07T00:48:29;7.93;;;5.63;;
14754;SDS011;7469;50.906;6.952;2023-04-07T00:50:57;8.27;;;6.40;;
14754;SDS011;7469;50.906;6.952;2023-04-07T00:53:26;9.70;;;6.90;;
14754;SDS011;7469;50.906;6.952;2023-04-07T00:55:55;10.13;;;6.73;;
14754;SDS011;7469;50.906;6.952;2023-04-07T00:58:24;7.87;;;6.57;;
14754;SDS011;7469;50.906;6.952;2023-04-07T01:00:54;9.97;;;6.37;;
14754;SDS011;7469;50.906;6.952;2023-04-07T01:03:32;11.00;;;6.90;;
14754;SDS011;7469;50.906;6.952;2023-04-07T01:06:04;8.97;;;7.17;;
14754;SDS011;7469;50.906;6.952;2023-04-07T01:08:37;9.90;;;6.47;;
14754;SDS011;7469;50.906;6.952;2023-04-07T01:11:16;10.57;;;7.37;;
14754;SDS011;7469;50.906;6.952;2023-04-07T01:13:50;7.53;;;6.10;;
14754;SDS011;7469;50.906;6.952;2023-04-07T01:16:21;9.27;;;5.87;;
14754;SDS011;7469;50.906;6.952;2023-04-07T01:18:56;9.17;;;6.47;;
14754;SDS011;7469;50.906;6.952;2023-04-07T01:21:27;8.00;;;6.30;;
14754;SDS011;7469;50.906;6.952;2023-04-07T01:24:02;7.13;;;6.13;;
14754;SDS011;7469;50.906;6.952;2023-04-07T01:26:39;8.73;;;6.57;;
14754;SDS011;7469;50.906;6.952;2023-04-07T01:32:13;8.97;;;6.77;;
14754;SDS011;7469;50.906;6.952;2023-04-07T01:34:41;9.77;;;6.70;;
14754;SDS011;7469;50.906;6.952;2023-04-07T01:37:11;9.57;;;6.80;;
14754;SDS011;7469;50.906;6.952;2023-04-07T01:39:40;10.60;;;7.03;;
14754;SDS011;7469;50.906;6.952;2023-04-07T01:42:09;7.30;;;6.47;;
14754;SDS011;7469;50.906;6.952;2023-04-07T01:44:37;8.20;;;6.57;;
14754;SDS011;7469;50.906;6.952;2023-04-07T01:47:08;9.40;;;6.77;;
14754;SDS011;7469;50.906;6.952;2023-04-07T01:49:36;9.47;;;6.77;;
14754;SDS011;7469;50.906;6.952;2023-04-07T01:52:07;8.03;;;6.43;;
14754;SDS011;7469;50.906;6.952;2023-04-07T01:54:35;11.47;;;6.20;;
14754;SDS011;7469;50.906;6.952;2023-04-07T01:57:04;9.17;;;6.10;;
14754;SDS011;7469;50.906;6.952;2023-04-07T01:59:32;9.40;;;6.27;;
14754;SDS011;7469;50.906;6.952;2023-04-07T02:02:00;7.30;;;6.10;;
14754;SDS011;7469;50.906;6.952;2023-04-07T02:04:30;7.87;;;5.87;;
14754;SDS011;7469;50.906;6.952;2023-04-07T02:07:09;9.43;;;6.40;;
14754;SDS011;7469;50.906;6.952;2023-04-07T02:09:44;8.50;;;6.30;;
14754;SDS011;7469;50.906;6.952;2023-04-07T02:12:13;8.07;;;6.20;;
14754;SDS011;7469;50.906;6.952;2023-04-07T02:14:43;8.00;;;6.30;;
14754;SDS011;7469;50.906;6.952;2023-04-07T02:17:11;8.47;;;6.87;;
14754;SDS011;7469;50.906;6.952;2023-04-07T02:19:42;10.33;;;7.33;;
14754;SDS011;7469;50.906;6.952;2023-04-07T02:22:11;8.60;;;7.67;;
14754;SDS011;7469;50.906;6.952;2023-04-07T02:24:41;11.70;;;7.77;;
14754;SDS011;7469;50.906;6.952;2023-04-07T02:27:09;11.77;;;8.43;;
14754;SDS011;7469;50.906;6.952;2023-04-07T02:29:37;12.27;;;9.03;;
14754;SDS011;7469;50.906;6.952;2023-04-07T02:32:06;11.53;;;8.83;;
14754;SDS011;7469;50.906;6.952;2023-04-07T02:34:34;14.57;;;9.47;;
14754;SDS011;7469;50.906;6.952;2023-04-07T02:37:04;14.87;;;9.47;;
14754;SDS011;7469;50.906;6.952;2023-04-07T02:39:32;14.90;;;10.10;;
14754;SDS011;7469;50.906;6.952;2023-04-07T02:42:00;14.27;;;11.20;;
14754;SDS011;7469;50.906;6.952;2023-04-07T02:44:28;16.80;;;10.23;;
14754;SDS011;7469;50.906;6.952;2023-04-07T02:46:56;14.23;;;10.33;;
14754;SDS011;7469;50.906;6.952;2023-04-07T02:49:24;14.00;;;10.80;;
14754;SDS011;7469;50.906;6.952;2023-04-07T02:51:52;17.00;;;11.57;;
14754;SDS011;7469;50.906;6.952;2023-04-07T02:54:21;15.13;;;11.37;;
14754;SDS011;7469;50.906;6.952;2023-04-07T02:56:49;14.70;;;11.03;;
14754;SDS011;7469;50.906;6.952;2023-04-07T02:59:17;16.57;;;11.53;;
14754;SDS011;7469;50.906;6.952;2023-04-07T03:01:45;14.67;;;11.50;;
14754;SDS011;7469;50.906;6.952;2023-04-07T03:04:13;14.00;;;10.90;;
14754;SDS011;7469;50.906;6.952;2023-04-07T03:06:41;19.83;;;12.40;;
14754;SDS011;7469;50.906;6.952;2023-04-07T03:09:09;15.70;;;12.07;;
14754;SDS011;7469;50.906;6.952;2023-04-07T03:11:39;17.37;;;12.87;;
14754;SDS011;7469;50.906;6.952;2023-04-07T03:14:07;16.27;;;11.77;;
14754;SDS011;7469;50.906;6.952;2023-04-07T03:16:35;19.03;;;12.70;;
14754;SDS011;7469;50.906;6.952;2023-04-07T03:19:04;17.27;;;12.87;;
14754;SDS011;7469;50.906;6.952;2023-04-07T03:21:32;16.13;;;12.27;;
14754;SDS011;7469;50.906;6.952;2023-04-07T03:24:00;20.37;;;13.63;;
14754;SDS011;7469;50.906;6.952;2023-04-07T03:26:28;17.37;;;12.47;;
14754;SDS011;7469;50.906;6.952;2023-04-07T03:28:58;18.30;;;13.50;;
14754;SDS011;7469;50.906;6.952;2023-04-07T03:31:26;18.47;;;11.93;;
14754;SDS011;7469;50.906;6.952;2023-04-07T03:33:55;19.80;;;12.97;;
14754;SDS011;7469;50.906;6.952;2023-04-07T03:36:23;18.43;;;13.10;;
14754;SDS011;7469;50.906;6.952;2023-04-07T03:38:53;18.47;;;12.73;;
14754;SDS011;7469;50.906;6.952;2023-04-07T03:41:21;17.07;;;12.43;;
14754;SDS011;7469;50.906;6.952;2023-04-07T03:43:49;19.27;;;13.13;;
14754;SDS011;7469;50.906;6.952;2023-04-07T03:46:19;20.13;;;13.07;;
14754;SDS011;7469;50.906;6.952;2023-04-07T03:48:47;22.67;;;13.53;;
14754;SDS011;7469;50.906;6.952;2023-04-07T03:51:16;21.60;;;13.73;;
14754;SDS011;7469;50.906;6.952;2023-04-07T03:53:43;19.90;;;13.93;;
14754;SDS011;7469;50.906;6.952;2023-04-07T03:56:11;21.57;;;14.03;;
14754;SDS011;7469;50.906;6.952;2023-04-07T03:58:39;20.97;;;14.33;;
14754;SDS011;7469;50.906;6.952;2023-04-07T04:01:11;18.67;;;13.40;;
14754;SDS011;7469;50.906;6.952;2023-04-07T04:03:41;21.90;;;14.77;;
14754;SDS011;7469;50.906;6.952;2023-04-07T04:06:09;24.30;;;14.80;;
14754;SDS011;7469;50.906;6.952;2023-04-07T04:08:37;19.10;;;13.73;;
14754;SDS011;7469;50.906;6.952;2023-04-07T04:11:05;20.03;;;13.63;;
14754;SDS011;7469;50.906;6.952;2023-04-07T04:13:33;23.50;;;14.93;;
14754;SDS011;7469;50.906;6.952;2023-04-07T04:16:01;21.40;;;14.53;;
14754;SDS011;7469;50.906;6.952;2023-04-07T04:18:30;22.17;;;14.03;;
14754;SDS011;7469;50.906;6.952;2023-04-07T04:20:59;22.57;;;13.60;;
14754;SDS011;7469;50.906;6.952;2023-04-07T04:23:27;19.30;;;13.50;;
14754;SDS011;7469;50.906;6.952;2023-04-07T04:25:55;19.63;;;13.97;;
14754;SDS011;7469;50.906;6.952;2023-04-07T04:28:25;20.73;;;14.30;;
14754;SDS011;7469;50.906;6.952;2023-04-07T04:30:53;18.67;;;13.47;;
14754;SDS011;7469;50.906;6.952;2023-04-07T04:33:21;18.60;;;13.03;;
14754;SDS011;7469;50.906;6.952;2023-04-07T04:35:49;20.33;;;13.80;;
14754;SDS011;7469;50.906;6.952;2023-04-07T04:38:18;22.43;;;13.20;;
14754;SDS011;7469;50.906;6.952;2023-04-07T04:40:46;22.93;;;14.80;;
14754;SDS011;7469;50.906;6.952;2023-04-07T04:43:14;22.60;;;14.07;;
14754;SDS011;7469;50.906;6.952;2023-04-07T04:45:42;19.20;;;13.60;;
14754;SDS011;7469;50.906;6.952;2023-04-07T04:48:10;19.93;;;14.00;;
14754;SDS011;7469;50.906;6.952;2023-04-07T04:50:38;25.27;;;14.60;;
14754;SDS011;7469;50.906;6.952;2023-04-07T04:53:08;22.10;;;13.57;;
14754;SDS011;7469;50.906;6.952;2023-04-07T04:55:37;20.40;;;14.27;;
14754;SDS011;7469;50.906;6.952;2023-04-07T04:58:08;19.47;;;13.47;;
14754;SDS011;7469;50.906;6.952;2023-04-07T05:00:36;20.57;;;13.47;;
14754;SDS011;7469;50.906;6.952;2023-04-07T05:03:04;21.30;;;12.87;;
14754;SDS011;7469;50.906;6.952;2023-04-07T05:05:32;20.13;;;13.87;;
14754;SDS011;7469;50.906;6.952;2023-04-07T05:08:00;21.00;;;14.17;;
14754;SDS011;7469;50.906;6.952;2023-04-07T05:10:28;18.07;;;13.40;;
14754;SDS011;7469;50.906;6.952;2023-04-07T05:12:57;19.53;;;13.80;;
14754;SDS011;7469;50.906;6.952;2023-04-07T05:15:25;16.97;;;12.07;;
14754;SDS011;7469;50.906;6.952;2023-04-07T05:17:53;18.53;;;12.43;;
14754;SDS011;7469;50.906;6.952;2023-04-07T05:20:21;17.30;;;12.53;;
14754;SDS011;7469;50.906;6.952;2023-04-07T05:22:49;16.20;;;11.33;;
14754;SDS011;7469;50.906;6.952;2023-04-07T05:25:17;16.40;;;10.60;;
14754;SDS011;7469;50.906;6.952;2023-04-07T05:27:45;15.23;;;10.63;;
14754;SDS011;7469;50.906;6.952;2023-04-07T05:30:14;17.33;;;11.07;;
14754;SDS011;7469;50.906;6.952;2023-04-07T05:32:42;13.50;;;10.53;;
14754;SDS011;7469;50.906;6.952;2023-04-07T05:35:11;15.83;;;10.73;;
14754;SDS011;7469;50.906;6.952;2023-04-07T05:37:39;13.67;;;9.93;;
14754;SDS011;7469;50.906;6.952;2023-04-07T05:40:07;14.80;;;10.03;;
14754;SDS011;7469;50.906;6.952;2023-04-07T05:42:35;13.87;;;9.07;;
14754;SDS011;7469;50.906;6.952;2023-04-07T05:45:04;12.73;;;8.83;;
14754;SDS011;7469;50.906;6.952;2023-04-07T05:47:34;13.07;;;8.33;;
14754;SDS011;7469;50.906;6.952;2023-04-07T05:50:02;14.53;;;8.80;;
14754;SDS011;7469;50.906;6.952;2023-04-07T05:52:30;12.17;;;9.63;;
14754;SDS011;7469;50.906;6.952;2023-04-07T05:54:58;14.63;;;9.90;;
14754;SDS011;7469;50.906;6.952;2023-04-07T05:57:26;12.37;;;9.27;;
14754;SDS011;7469;50.906;6.952;2023-04-07T05:59:54;12.80;;;9.33;;
14754;SDS011;7469;50.906;6.952;2023-04-07T06:02:22;10.73;;;8.07;;
14754;SDS011;7469;50.906;6.952;2023-04-07T06:04:52;13.47;;;8.70;;
14754;SDS011;7469;50.906;6.952;2023-04-07T06:07:20;11.40;;;8.70;;
14754;SDS011;7469;50.906;6.952;2023-04-07T06:09:48;12.80;;;8.70;;
14754;SDS011;7469;50.906;6.952;2023-04-07T06:12:16;12.80;;;8.93;;
14754;SDS011;7469;50.906;6.952;2023-04-07T06:14:45;11.53;;;8.30;;
14754;SDS011;7469;50.906;6.952;2023-04-07T06:17:17;11.40;;;7.37;;
14754;SDS011;7469;50.906;6.952;2023-04-07T06:19:45;13.13;;;8.30;;
14754;SDS011;7469;50.906;6.952;2023-04-07T06:22:15;14.53;;;8.10;;
14754;SDS011;7469;50.906;6.952;2023-04-07T06:24:43;13.47;;;8.50;;
14754;SDS011;7469;50.906;6.952;2023-04-07T06:27:11;8.77;;;7.43;;
14754;SDS011;7469;50.906;6.952;2023-04-07T06:29:39;13.97;;;7.70;;
14754;SDS011;7469;50.906;6.952;2023-04-07T06:32:07;10.37;;;7.07;;
14754;SDS011;7469;50.906;6.952;2023-04-07T06:34:35;13.03;;;7.20;;
14754;SDS011;7469;50.906;6.952;2023-04-07T06:37:03;8.20;;;5.40;;
14754;SDS011;7469;50.906;6.952;2023-04-07T06:39:33;7.43;;;5.87;;
14754;SDS011;7469;50.906;6.952;2023-04-07T06:42:01;7.83;;;5.73;;
14754;SDS011;7469;50.906;6.952;2023-04-07T06:44:29;8.77;;;5.10;;
14754;SDS011;7469;50.906;6.952;2023-04-07T06:46:57;5.93;;;4.80;;
14754;SDS011;7469;50.906;6.952;2023-04-07T06:49:25;6.57;;;4.27;;
14754;SDS011;7469;50.906;6.952;2023-04-07T06:51:53;6.13;;;4.50;;
14754;SDS011;7469;50.906;6.952;2023-04-07T06:54:21;6.17;;;4.57;;
14754;SDS011;7469;50.906;6.952;2023-04-07T06:56:51;6.43;;;4.07;;
14754;SDS011;7469;50.906;6.952;2023-04-07T06:59:19;5.80;;;3.90;;
14754;SDS011;7469;50.906;6.952;2023-04-07T07:01:48;5.30;;;4.00;;
14754;SDS011;7469;50.906;6.952;2023-04-07T07:04:15;6.00;;;4.47;;
14754;SDS011;7469;50.906;6.952;2023-04-07T07:06:44;6.27;;;3.87;;
14754;SDS011;7469;50.906;6.952;2023-04-07T07:09:12;8.70;;;4.33;;
14754;SDS011;7469;50.906;6.952;2023-04-07T07:11:41;5.40;;;3.93;;
14754;SDS011;7469;50.906;6.952;2023-04-07T07:14:10;8.03;;;3.87;;
14754;SDS011;7469;50.906;6.952;2023-04-07T07:16:38;7.73;;;4.30;;
14754;SDS011;7469;50.906;6.952;2023-04-07T07:19:06;5.17;;;3.77;;
14754;SDS011;7469;50.906;6.952;2023-04-07T07:21:34;4.83;;;3.30;;
14754;SDS011;7469;50.906;6.952;2023-04-07T07:24:03;5.50;;;3.93;;
14754;SDS011;7469;50.906;6.952;2023-04-07T07:26:31;5.77;;;3.97;;
14754;SDS011;7469;50.906;6.952;2023-04-07T07:28:59;6.03;;;3.73;;
14754;SDS011;7469;50.906;6.952;2023-04-07T07:31:28;6.27;;;4.20;;
14754;SDS011;7469;50.906;6.952;2023-04-07T07:33:56;7.87;;;4.10;;
14754;SDS011;7469;50.906;6.952;2023-04-07T07:36:25;9.37;;;4.20;;
14754;SDS011;7469;50.906;6.952;2023-04-07T07:38:53;5.53;;;4.17;;
14754;SDS011;7469;50.906;6.952;2023-04-07T07:41:21;5.33;;;4.00;;
14754;SDS011;7469;50.906;6.952;2023-04-07T07:43:49;4.77;;;3.80;;
14754;SDS011;7469;50.906;6.952;2023-04-07T07:46:17;5.77;;;4.03;;
14754;SDS011;7469;50.906;6.952;2023-04-07T07:48:46;5.77;;;4.10;;
14754;SDS011;7469;50.906;6.952;2023-04-07T07:51:14;8.57;;;4.50;;
14754;SDS011;7469;50.906;6.952;2023-04-07T07:53:43;5.17;;;4.07;;
14754;SDS011;7469;50.906;6.952;2023-04-07T07:56:12;5.90;;;4.10;;
14754;SDS011;7469;50.906;6.952;2023-04-07T07:58:40;4.87;;;4.27;;
14754;SDS011;7469;50.906;6.952;2023-04-07T08:01:08;4.90;;;3.90;;
14754;SDS011;7469;50.906;6.952;2023-04-07T08:03:36;5.17;;;4.40;;
14754;SDS011;7469;50.906;6.952;2023-04-07T08:06:06;5.00;;;3.97;;
14754;SDS011;7469;50.906;6.952;2023-04-07T08:08:34;5.07;;;3.87;;
14754;SDS011;7469;50.906;6.952;2023-04-07T08:11:02;6.43;;;4.37;;
14754;SDS011;7469;50.906;6.952;2023-04-07T08:13:30;6.37;;;4.50;;
14754;SDS011;7469;50.906;6.952;2023-04-07T08:15:58;5.33;;;4.10;;
14754;SDS011;7469;50.906;6.952;2023-04-07T08:18:26;4.83;;;4.17;;
14754;SDS011;7469;50.906;6.952;2023-04-07T08:20:54;8.37;;;4.73;;
14754;SDS011;7469;50.906;6.952;2023-04-07T08:23:24;5.77;;;4.07;;
14754;SDS011;7469;50.906;6.952;2023-04-07T08:25:52;7.17;;;4.57;;
14754;SDS011;7469;50.906;6.952;2023-04-07T08:28:20;5.97;;;4.40;;
14754;SDS011;7469;50.906;6.952;2023-04-07T08:30:48;6.77;;;4.20;;
14754;SDS011;7469;50.906;6.952;2023-04-07T08:33:17;7.73;;;4.20;;
14754;SDS011;7469;50.906;6.952;2023-04-07T08:35:47;6.47;;;4.30;;
14754;SDS011;7469;50.906;6.952;2023-04-07T08:38:16;6.27;;;4.37;;
14754;SDS011;7469;50.906;6.952;2023-04-07T08:40:45;8.30;;;4.63;;
14754;SDS011;7469;50.906;6.952;2023-04-07T08:43:16;5.97;;;4.50;;
14754;SDS011;7469;50.906;6.952;2023-04-07T08:45:46;6.20;;;4.70;;
14754;SDS011;7469;50.906;6.952;2023-04-07T08:48:18;6.00;;;4.47;;
14754;SDS011;7469;50.906;6.952;2023-04-07T08:50:52;6.90;;;4.50;;
14754;SDS011;7469;50.906;6.952;2023-04-07T08:53:22;8.43;;;5.13;;
14754;SDS011;7469;50.906;6.952;2023-04-07T08:55:56;5.53;;;4.17;;
14754;SDS011;7469;50.906;6.952;2023-04-07T08:58:24;6.30;;;4.33;;
14754;SDS011;7469;50.906;6.952;2023-04-07T09:00:53;6.53;;;4.67;;
14754;SDS011;7469;50.906;6.952;2023-04-07T09:03:21;8.13;;;4.37;;
14754;SDS011;7469;50.906;6.952;2023-04-07T09:05:50;6.47;;;4.50;;
14754;SDS011;7469;50.906;6.952;2023-04-07T09:08:21;5.60;;;4.23;;
14754;SDS011;7469;50.906;6.952;2023-04-07T09:10:49;6.87;;;4.63;;
14754;SDS011;7469;50.906;6.952;2023-04-07T09:13:19;6.20;;;4.70;;
14754;SDS011;7469;50.906;6.952;2023-04-07T09:15:47;8.70;;;4.97;;
14754;SDS011;7469;50.906;6.952;2023-04-07T09:18:15;6.00;;;4.73;;
14754;SDS011;7469;50.906;6.952;2023-04-07T09:20:56;7.10;;;4.83;;
14754;SDS011;7469;50.906;6.952;2023-04-07T09:23:27;8.27;;;5.00;;
14754;SDS011;7469;50.906;6.952;2023-04-07T09:25:57;6.83;;;4.83;;
14754;SDS011;7469;50.906;6.952;2023-04-07T09:28:40;6.60;;;4.97;;
14754;SDS011;7469;50.906;6.952;2023-04-07T09:31:09;8.07;;;4.47;;
14754;SDS011;7469;50.906;6.952;2023-04-07T09:33:37;8.53;;;4.93;;
14754;SDS011;7469;50.906;6.952;2023-04-07T09:36:05;6.30;;;4.17;;
14754;SDS011;7469;50.906;6.952;2023-04-07T09:38:34;6.73;;;4.87;;
14754;SDS011;7469;50.906;6.952;2023-04-07T09:41:04;8.53;;;5.10;;
14754;SDS011;7469;50.906;6.952;2023-04-07T09:43:37;6.47;;;5.03;;
14754;SDS011;7469;50.906;6.952;2023-04-07T09:46:08;7.90;;;4.93;;
14754;SDS011;7469;50.906;6.952;2023-04-07T09:48:37;7.90;;;4.43;;
14754;SDS011;7469;50.906;6.952;2023-04-07T09:51:07;7.50;;;5.30;;
14754;SDS011;7469;50.906;6.952;2023-04-07T09:53:46;5.80;;;4.63;;
14754;SDS011;7469;50.906;6.952;2023-04-07T09:56:16;9.30;;;5.37;;
14754;SDS011;7469;50.906;6.952;2023-04-07T09:58:47;6.53;;;4.23;;
14754;SDS011;7469;50.906;6.952;2023-04-07T10:01:16;5.40;;;4.37;;
14754;SDS011;7469;50.906;6.952;2023-04-07T10:03:45;5.67;;;4.47;;
14754;SDS011;7469;50.906;6.952;2023-04-07T10:06:14;6.83;;;4.93;;
14754;SDS011;7469;50.906;6.952;2023-04-07T10:08:43;5.30;;;4.27;;
14754;SDS011;7469;50.906;6.952;2023-04-07T10:11:11;7.37;;;4.80;;
14754;SDS011;7469;50.906;6.952;2023-04-07T10:13:39;8.43;;;4.93;;
14754;SDS011;7469;50.906;6.952;2023-04-07T10:16:09;8.23;;;4.90;;
14754;SDS011;7469;50.906;6.952;2023-04-07T10:18:38;6.63;;;4.63;;
14754;SDS011;7469;50.906;6.952;2023-04-07T10:21:07;7.20;;;4.90;;
14754;SDS011;7469;50.906;6.952;2023-04-07T10:23:44;9.73;;;5.60;;
14754;SDS011;7469;50.906;6.952;2023-04-07T10:26:17;11.70;;;5.80;;
14754;SDS011;7469;50.906;6.952;2023-04-07T10:28:50;8.83;;;6.33;;
14754;SDS011;7469;50.906;6.952;2023-04-07T10:31:22;10.60;;;6.10;;
14754;SDS011;7469;50.906;6.952;2023-04-07T10:33:52;11.10;;;5.93;;
14754;SDS011;7469;50.906;6.952;2023-04-07T10:36:21;9.97;;;7.00;;
14754;SDS011;7469;50.906;6.952;2023-04-07T10:41:46;10.27;;;6.80;;
14754;SDS011;7469;50.906;6.952;2023-04-07T10:47:19;9.00;;;6.13;;
14754;SDS011;7469;50.906;6.952;2023-04-07T10:52:41;10.87;;;6.73;;
14754;SDS011;7469;50.906;6.952;2023-04-07T10:58:12;10.43;;;6.67;;
14754;SDS011;7469;50.906;6.952;2023-04-07T11:00:41;11.63;;;6.87;;
14754;SDS011;7469;50.906;6.952;2023-04-07T11:03:11;10.77;;;7.60;;
14754;SDS011;7469;50.906;6.952;2023-04-07T11:05:40;10.10;;;6.13;;
14754;SDS011;7469;50.906;6.952;2023-04-07T11:08:09;13.63;;;6.60;;
14754;SDS011;7469;50.906;6.952;2023-04-07T11:10:37;12.63;;;6.57;;
14754;SDS011;7469;50.906;6.952;2023-04-07T11:13:05;9.93;;;5.70;;
14754;SDS011;7469;50.906;6.952;2023-04-07T11:15:34;9.17;;;6.13;;
14754;SDS011;7469;50.906;6.952;2023-04-07T11:18:11;9.50;;;6.37;;
14754;SDS011;7469;50.906;6.952;2023-04-07T11:20:42;9.33;;;6.00;;
14754;SDS011;7469;50.906;6.952;2023-04-07T11:23:16;9.83;;;6.43;;
14754;SDS011;7469;50.906;6.952;2023-04-07T11:25:45;8.97;;;6.60;;
14754;SDS011;7469;50.906;6.952;2023-04-07T11:28:15;8.97;;;5.90;;
14754;SDS011;7469;50.906;6.952;2023-04-07T11:30:44;7.93;;;6.07;;
14754;SDS011;7469;50.906;6.952;2023-04-07T11:33:15;7.93;;;5.60;;
14754;SDS011;7469;50.906;6.952;2023-04-07T11:35:51;10.33;;;7.13;;
14754;SDS011;7469;50.906;6.952;2023-04-07T11:38:23;11.50;;;6.40;;
14754;SDS011;7469;50.906;6.952;2023-04-07T11:40:52;12.63;;;6.87;;
14754;SDS011;7469;50.906;6.952;2023-04-07T11:43:21;11.90;;;6.40;;
14754;SDS011;7469;50.906;6.952;2023-04-07T11:46:03;11.47;;;6.77;;
14754;SDS011;7469;50.906;6.952;2023-04-07T11:48:36;11.90;;;6.40;;
14754;SDS011;7469;50.906;6.952;2023-04-07T11:51:05;11.03;;;7.20;;
14754;SDS011;7469;50.906;6.952;2023-04-07T11:53:41;9.70;;;7.03;;
14754;SDS011;7469;50.906;6.952;2023-04-07T11:56:10;9.77;;;6.23;;
14754;SDS011;7469;50.906;6.952;2023-04-07T11:58:45;11.57;;;6.83;;
14754;SDS011;7469;50.906;6.952;2023-04-07T12:01:14;10.00;;;6.40;;
14754;SDS011;7469;50.906;6.952;2023-04-07T12:03:55;10.77;;;6.07;;
14754;SDS011;7469;50.906;6.952;2023-04-07T12:06:25;10.70;;;6.17;;
14754;SDS011;7469;50.906;6.952;2023-04-07T12:08:55;9.30;;;6.83;;
14754;SDS011;7469;50.906;6.952;2023-04-07T12:11:23;9.57;;;6.17;;
14754;SDS011;7469;50.906;6.952;2023-04-07T12:13:51;9.50;;;6.33;;
14754;SDS011;7469;50.906;6.952;2023-04-07T12:16:19;8.93;;;6.50;;
14754;SDS011;7469;50.906;6.952;2023-04-07T12:18:48;11.53;;;6.53;;
14754;SDS011;7469;50.906;6.952;2023-04-07T12:21:18;8.73;;;6.37;;
14754;SDS011;7469;50.906;6.952;2023-04-07T12:23:46;9.80;;;7.43;;
14754;SDS011;7469;50.906;6.952;2023-04-07T12:26:15;10.50;;;7.80;;
14754;SDS011;7469;50.906;6.952;2023-04-07T12:28:45;13.90;;;8.53;;
14754;SDS011;7469;50.906;6.952;2023-04-07T12:31:13;11.10;;;7.23;;
14754;SDS011;7469;50.906;6.952;2023-04-07T12:33:41;10.63;;;8.03;;
14754;SDS011;7469;50.906;6.952;2023-04-07T12:36:09;13.37;;;8.20;;
14754;SDS011;7469;50.906;6.952;2023-04-07T12:38:39;12.77;;;7.10;;
14754;SDS011;7469;50.906;6.952;2023-04-07T12:41:07;11.70;;;7.40;;
14754;SDS011;7469;50.906;6.952;2023-04-07T12:43:35;11.43;;;7.63;;
14754;SDS011;7469;50.906;6.952;2023-04-07T12:46:03;13.43;;;7.57;;
14754;SDS011;7469;50.906;6.952;2023-04-07T12:48:31;11.13;;;8.00;;
14754;SDS011;7469;50.906;6.952;2023-04-07T12:50:59;12.83;;;7.80;;
14754;SDS011;7469;50.906;6.952;2023-04-07T12:53:27;12.43;;;7.27;;
14754;SDS011;7469;50.906;6.952;2023-04-07T12:55:56;12.20;;;8.00;;
14754;SDS011;7469;50.906;6.952;2023-04-07T12:58:25;9.00;;;6.73;;
14754;SDS011;7469;50.906;6.952;2023-04-07T13:00:53;12.23;;;7.50;;
14754;SDS011;7469;50.906;6.952;2023-04-07T13:03:21;13.07;;;7.90;;
14754;SDS011;7469;50.906;6.952;2023-04-07T13:05:50;10.50;;;7.47;;
14754;SDS011;7469;50.906;6.952;2023-04-07T13:08:20;11.87;;;8.07;;
14754;SDS011;7469;50.906;6.952;2023-04-07T13:10:48;13.07;;;8.47;;
14754;SDS011;7469;50.906;6.952;2023-04-07T13:13:17;14.37;;;8.53;;
14754;SDS011;7469;50.906;6.952;2023-04-07T13:15:45;12.10;;;8.20;;
14754;SDS011;7469;50.906;6.952;2023-04-07T13:18:13;10.10;;;8.13;;
14754;SDS011;7469;50.906;6.952;2023-04-07T13:20:41;11.83;;;8.00;;
14754;SDS011;7469;50.906;6.952;2023-04-07T13:23:16;10.37;;;8.00;;
14754;SDS011;7469;50.906;6.952;2023-04-07T13:25:44;12.63;;;7.67;;
14754;SDS011;7469;50.906;6.952;2023-04-07T13:28:12;9.63;;;7.43;;
14754;SDS011;7469;50.906;6.952;2023-04-07T13:30:44;12.23;;;7.63;;
14754;SDS011;7469;50.906;6.952;2023-04-07T13:33:13;11.33;;;7.23;;
14754;SDS011;7469;50.906;6.952;2023-04-07T13:35:41;9.43;;;6.77;;
14754;SDS011;7469;50.906;6.952;2023-04-07T13:38:09;9.20;;;6.53;;
14754;SDS011;7469;50.906;6.952;2023-04-07T13:40:38;12.07;;;7.17;;
14754;SDS011;7469;50.906;6.952;2023-04-07T13:43:06;10.27;;;6.77;;
14754;SDS011;7469;50.906;6.952;2023-04-07T13:45:36;11.77;;;7.87;;
14754;SDS011;7469;50.906;6.952;2023-04-07T13:48:05;8.07;;;5.93;;
14754;SDS011;7469;50.906;6.952;2023-04-07T13:50:34;9.27;;;6.33;;
14754;SDS011;7469;50.906;6.952;2023-04-07T13:53:03;9.47;;;5.77;;
14754;SDS011;7469;50.906;6.952;2023-04-07T13:55:31;9.40;;;5.83;;
14754;SDS011;7469;50.906;6.952;2023-04-07T13:57:59;10.47;;;6.23;;
14754;SDS011;7469;50.906;6.952;2023-04-07T14:00:27;13.90;;;6.47;;
14754;SDS011;7469;50.906;6.952;2023-04-07T14:02:55;8.70;;;5.70;;
14754;SDS011;7469;50.906;6.952;2023-04-07T14:05:25;6.60;;;5.57;;
14754;SDS011;7469;50.906;6.952;2023-04-07T14:07:53;6.77;;;5.47;;
14754;SDS011;7469;50.906;6.952;2023-04-07T14:10:21;8.27;;;5.30;;
14754;SDS011;7469;50.906;6.952;2023-04-07T14:12:49;9.10;;;5.33;;
14754;SDS011;7469;50.906;6.952;2023-04-07T14:15:17;10.83;;;5.70;;
14754;SDS011;7469;50.906;6.952;2023-04-07T14:17:45;9.30;;;5.50;;
14754;SDS011;7469;50.906;6.952;2023-04-07T14:20:13;9.50;;;5.93;;
14754;SDS011;7469;50.906;6.952;2023-04-07T14:22:42;7.40;;;5.77;;
14754;SDS011;7469;50.906;6.952;2023-04-07T14:25:10;11.03;;;5.30;;
14754;SDS011;7469;50.906;6.952;2023-04-07T14:27:38;8.13;;;5.67;;
14754;SDS011;7469;50.906;6.952;2023-04-07T14:30:07;6.77;;;5.40;;
14754;SDS011;7469;50.906;6.952;2023-04-07T14:32:35;7.73;;;5.67;;
14754;SDS011;7469;50.906;6.952;2023-04-07T14:35:04;8.07;;;5.60;;
14754;SDS011;7469;50.906;6.952;2023-04-07T14:37:33;9.63;;;5.70;;
14754;SDS011;7469;50.906;6.952;2023-04-07T14:40:03;7.60;;;5.57;;
14754;SDS011;7469;50.906;6.952;2023-04-07T14:42:32;10.87;;;5.90;;
14754;SDS011;7469;50.906;6.952;2023-04-07T14:45:00;6.60;;;5.27;;
14754;SDS011;7469;50.906;6.952;2023-04-07T14:47:29;8.70;;;5.00;;
14754;SDS011;7469;50.906;6.952;2023-04-07T14:49:57;10.27;;;5.27;;
14754;SDS011;7469;50.906;6.952;2023-04-07T14:52:25;6.60;;;5.07;;
14754;SDS011;7469;50.906;6.952;2023-04-07T14:54:53;7.80;;;4.90;;
14754;SDS011;7469;50.906;6.952;2023-04-07T14:57:26;7.37;;;5.43;;
14754;SDS011;7469;50.906;6.952;2023-04-07T14:59:54;7.20;;;5.30;;
14754;SDS011;7469;50.906;6.952;2023-04-07T15:02:22;6.00;;;4.93;;
14754;SDS011;7469;50.906;6.952;2023-04-07T15:04:50;9.53;;;4.90;;
14754;SDS011;7469;50.906;6.952;2023-04-07T15:07:18;9.47;;;5.20;;
14754;SDS011;7469;50.906;6.952;2023-04-07T15:09:46;9.57;;;5.93;;
14754;SDS011;7469;50.906;6.952;2023-04-07T15:12:14;12.47;;;5.57;;
14754;SDS011;7469;50.906;6.952;2023-04-07T15:14:44;7.90;;;5.30;;
14754;SDS011;7469;50.906;6.952;2023-04-07T15:17:12;8.40;;;5.33;;
14754;SDS011;7469;50.906;6.952;2023-04-07T15:19:40;11.03;;;5.07;;